sensor_id;sensor_type;location;lat;lon;timestamp;pressure;altitude;pressure_sealevel;temperature;humidity
56414;BME280;42318;48.452;19.526;2023-05-02T00:06:54;98460.25;;;20.70;50.75
56414;BME280;42318;48.452;19.526;2023-05-02T00:14:25;98467.03;;;20.68;50.34
56414;BME280;42318;48.452;19.526;2023-05-02T00:21:56;98461.03;;;20.66;50.63
56414;BME280;42318;48.452;19.526;2023-05-02T00:29:27;98453.94;;;20.65;50.79
56414;BME280;42318;48.452;19.526;2023-05-02T00:36:58;98457.19;;;20.62;50.53
56414;BME280;42318;48.452;19.526;2023-05-02T00:44:29;98458.84;;;20.63;50.47
56414;BME280;42318;48.452;19.526;2023-05-02T00:52:00;98450.66;;;20.63;50.52
56414;BME280;42318;48.452;19.526;2023-05-02T00:59:33;98441.41;;;20.64;50.37
56414;BME280;42318;48.452;19.526;2023-05-02T01:15:01;98446.91;;;20.69;50.16
56414;BME280;42318;48.452;19.526;2023-05-02T01:22:37;98452.59;;;20.67;50.57
56414;BME280;42318;48.452;19.526;2023-05-02T01:30:11;98451.78;;;20.67;50.15
56414;BME280;42318;48.452;19.526;2023-05-02T01:37:44;98449.59;;;20.64;50.15
56414;BME280;42318;48.452;19.526;2023-05-02T01:45:17;98446.31;;;20.62;50.43
56414;BME280;42318;48.452;19.526;2023-05-02T01:52:50;98459.91;;;20.62;50.33
56414;BME280;42318;48.452;19.526;2023-05-02T02:00:21;98449.53;;;20.59;50.42
56414;BME280;42318;48.452;19.526;2023-05-02T02:07:53;98448.72;;;20.58;50.48
56414;BME280;42318;48.452;19.526;2023-05-02T02:15:27;98454.16;;;20.58;50.32
56414;BME280;42318;48.452;19.526;2023-05-02T02:23:02;98439.47;;;20.59;50.57
56414;BME280;42318;48.452;19.526;2023-05-02T02:30:34;98446.03;;;20.63;50.75
56414;BME280;42318;48.452;19.526;2023-05-02T02:38:35;98440.59;;;20.63;51.31
56414;BME280;42318;48.452;19.526;2023-05-02T02:46:28;98444.13;;;20.64;51.17
56414;BME280;42318;48.452;19.526;2023-05-02T03:02:12;98446.59;;;20.65;51.00
56414;BME280;42318;48.452;19.526;2023-05-02T03:09:45;98449.06;;;20.67;50.62
56414;BME280;42318;48.452;19.526;2023-05-02T03:17:16;98456.16;;;20.68;50.69
56414;BME280;42318;48.452;19.526;2023-05-02T03:24:47;98447.72;;;20.69;50.23
56414;BME280;42318;48.452;19.526;2023-05-02T03:32:18;98453.97;;;20.70;50.40
56414;BME280;42318;48.452;19.526;2023-05-02T03:39:49;98459.44;;;20.70;50.50
56414;BME280;42318;48.452;19.526;2023-05-02T03:47:20;98455.31;;;20.67;50.39
56414;BME280;42318;48.452;19.526;2023-05-02T03:54:50;98467.56;;;20.65;50.60
56414;BME280;42318;48.452;19.526;2023-05-02T04:02:21;98459.09;;;20.61;50.71
56414;BME280;42318;48.452;19.526;2023-05-02T04:09:52;98472.97;;;20.60;50.67
56414;BME280;42318;48.452;19.526;2023-05-02T04:17:23;98482.47;;;20.57;50.56
56414;BME280;42318;48.452;19.526;2023-05-02T04:24:53;98480.00;;;20.56;50.36
56414;BME280;42318;48.452;19.526;2023-05-02T04:32:24;98488.69;;;20.53;50.35
56414;BME280;42318;48.452;19.526;2023-05-02T04:39:56;98494.41;;;20.51;50.32
56414;BME280;42318;48.452;19.526;2023-05-02T04:47:27;98500.94;;;20.50;50.47
56414;BME280;42318;48.452;19.526;2023-05-02T04:54:57;98511.56;;;20.52;50.25
56414;BME280;42318;48.452;19.526;2023-05-02T05:02:28;98514.84;;;20.54;50.31
56414;BME280;42318;48.452;19.526;2023-05-02T05:09:59;98514.56;;;20.55;49.92
56414;BME280;42318;48.452;19.526;2023-05-02T05:17:30;98509.19;;;20.60;50.20
56414;BME280;42318;48.452;19.526;2023-05-02T05:25:01;98515.19;;;20.62;50.10
56414;BME280;42318;48.452;19.526;2023-05-02T05:32:32;98517.66;;;20.64;49.87
56414;BME280;42318;48.452;19.526;2023-05-02T05:40:07;98520.09;;;20.65;49.98
56414;BME280;42318;48.452;19.526;2023-05-02T05:47:38;98532.06;;;20.64;50.07
56414;BME280;42318;48.452;19.526;2023-05-02T05:55:09;98535.31;;;20.61;50.15
56414;BME280;42318;48.452;19.526;2023-05-02T06:02:40;98528.22;;;20.60;50.09
56414;BME280;42318;48.452;19.526;2023-05-02T06:10:11;98528.50;;;20.59;49.84
56414;BME280;42318;48.452;19.526;2023-05-02T06:17:41;98526.84;;;20.58;50.13
56414;BME280;42318;48.452;19.526;2023-05-02T06:25:12;98529.31;;;20.59;49.74
56414;BME280;42318;48.452;19.526;2023-05-02T06:32:43;98522.47;;;20.57;49.87
56414;BME280;42318;48.452;19.526;2023-05-02T06:40:14;98533.13;;;20.58;49.95
56414;BME280;42318;48.452;19.526;2023-05-02T06:47:45;98545.09;;;20.57;49.83
56414;BME280;42318;48.452;19.526;2023-05-02T06:55:16;98541.53;;;20.57;49.67
56414;BME280;42318;48.452;19.526;2023-05-02T07:02:48;98540.19;;;20.59;49.86
56414;BME280;42318;48.452;19.526;2023-05-02T07:10:19;98538.88;;;20.62;50.21
56414;BME280;42318;48.452;19.526;2023-05-02T07:17:50;98543.78;;;20.65;49.75
56414;BME280;42318;48.452;19.526;2023-05-02T07:25:20;98549.03;;;20.72;49.65
56414;BME280;42318;48.452;19.526;2023-05-02T07:32:51;98557.53;;;20.80;49.43
56414;BME280;42318;48.452;19.526;2023-05-02T07:40:22;98563.09;;;20.90;49.27
56414;BME280;42318;48.452;19.526;2023-05-02T07:47:53;98565.34;;;20.98;49.08
56414;BME280;42318;48.452;19.526;2023-05-02T07:55:23;98576.19;;;20.93;49.34
56414;BME280;42318;48.452;19.526;2023-05-02T08:02:57;98576.97;;;20.89;49.55
56414;BME280;42318;48.452;19.526;2023-05-02T08:10:28;98581.56;;;20.83;49.67
56414;BME280;42318;48.452;19.526;2023-05-02T08:17:59;98586.66;;;20.80;49.86
56414;BME280;42318;48.452;19.526;2023-05-02T08:25:30;98584.47;;;20.77;49.90
56414;BME280;42318;48.452;19.526;2023-05-02T08:33:01;98593.16;;;20.74;49.95
56414;BME280;42318;48.452;19.526;2023-05-02T08:40:35;98598.34;;;20.75;50.02
56414;BME280;42318;48.452;19.526;2023-05-02T08:48:08;98600.78;;;20.77;50.01
56414;BME280;42318;48.452;19.526;2023-05-02T08:55:40;98585.28;;;20.77;49.94
56414;BME280;42318;48.452;19.526;2023-05-02T09:10:54;98582.28;;;20.79;49.88
56414;BME280;42318;48.452;19.526;2023-05-02T09:18:36;98573.31;;;20.78;49.67
56414;BME280;42318;48.452;19.526;2023-05-02T09:26:18;98577.66;;;20.79;50.00
56414;BME280;42318;48.452;19.526;2023-05-02T09:33:49;98576.84;;;20.79;49.57
56414;BME280;42318;48.452;19.526;2023-05-02T09:41:20;98580.66;;;20.78;49.90
56414;BME280;42318;48.452;19.526;2023-05-02T09:48:55;98579.00;;;20.77;49.72
56414;BME280;42318;48.452;19.526;2023-05-02T09:56:26;98576.28;;;20.77;49.92
56414;BME280;42318;48.452;19.526;2023-05-02T10:03:57;98576.03;;;20.78;49.99
56414;BME280;42318;48.452;19.526;2023-05-02T10:11:29;98574.94;;;20.79;49.77
56414;BME280;42318;48.452;19.526;2023-05-02T10:19:09;98566.22;;;20.77;49.77
56414;BME280;42318;48.452;19.526;2023-05-02T10:26:42;98567.81;;;20.73;50.15
56414;BME280;42318;48.452;19.526;2023-05-02T10:34:13;98567.81;;;20.73;49.88
56414;BME280;42318;48.452;19.526;2023-05-02T10:41:46;98562.06;;;20.69;50.27
56414;BME280;42318;48.452;19.526;2023-05-02T10:49:17;98570.25;;;20.69;50.11
56414;BME280;42318;48.452;19.526;2023-05-02T10:57:06;98580.56;;;20.67;50.19
56414;BME280;42318;48.452;19.526;2023-05-02T11:05:04;98569.94;;;20.66;50.33
56414;BME280;42318;48.452;19.526;2023-05-02T11:20:17;98584.88;;;20.63;50.36
56414;BME280;42318;48.452;19.526;2023-05-02T11:27:50;98582.16;;;20.63;50.65
56414;BME280;42318;48.452;19.526;2023-05-02T11:35:22;98585.13;;;20.62;50.34
56414;BME280;42318;48.452;19.526;2023-05-02T11:42:55;98569.06;;;20.60;50.15
56414;BME280;42318;48.452;19.526;2023-05-02T11:50:26;98583.75;;;20.59;50.63
56414;BME280;42318;48.452;19.526;2023-05-02T11:57:57;98570.41;;;20.58;50.64
56414;BME280;42318;48.452;19.526;2023-05-02T12:05:28;98560.34;;;20.58;50.27
56414;BME280;42318;48.452;19.526;2023-05-02T12:13:03;98562.25;;;20.58;50.41
56414;BME280;42318;48.452;19.526;2023-05-02T12:20:35;98556.53;;;20.59;50.45
56414;BME280;42318;48.452;19.526;2023-05-02T12:28:09;98554.91;;;20.58;50.42
56414;BME280;42318;48.452;19.526;2023-05-02T12:35:39;98549.19;;;20.60;50.51
56414;BME280;42318;48.452;19.526;2023-05-02T12:43:10;98542.66;;;20.61;50.45
56414;BME280;42318;48.452;19.526;2023-05-02T12:50:41;98538.88;;;20.62;50.51
56414;BME280;42318;48.452;19.526;2023-05-02T12:58:12;98533.41;;;20.62;50.22
56414;BME280;42318;48.452;19.526;2023-05-02T13:05:43;98529.06;;;20.61;50.23
56414;BME280;42318;48.452;19.526;2023-05-02T13:13:14;98515.44;;;20.61;50.23
56414;BME280;42318;48.452;19.526;2023-05-02T13:20:45;98501.00;;;20.60;50.52
56414;BME280;42318;48.452;19.526;2023-05-02T13:28:16;98482.78;;;20.61;50.52
56414;BME280;42318;48.452;19.526;2023-05-02T13:35:47;98471.88;;;20.61;50.42
56414;BME280;42318;48.452;19.526;2023-05-02T13:43:17;98465.88;;;20.59;50.32
56414;BME280;42318;48.452;19.526;2023-05-02T13:50:48;98465.34;;;20.62;50.33
56414;BME280;42318;48.452;19.526;2023-05-02T13:58:19;98469.16;;;20.61;50.42
56414;BME280;42318;48.452;19.526;2023-05-02T14:05:50;98466.44;;;20.61;50.61
56414;BME280;42318;48.452;19.526;2023-05-02T14:13:21;98464.53;;;20.61;50.37
56414;BME280;42318;48.452;19.526;2023-05-02T14:20:52;98455.56;;;20.61;50.63
56414;BME280;42318;48.452;19.526;2023-05-02T14:28:23;98459.34;;;20.60;50.40
56414;BME280;42318;48.452;19.526;2023-05-02T14:35:54;98445.19;;;20.58;50.67
56414;BME280;42318;48.452;19.526;2023-05-02T14:43:25;98451.72;;;20.57;50.55
56414;BME280;42318;48.452;19.526;2023-05-02T14:50:57;98450.31;;;20.54;50.58
56414;BME280;42318;48.452;19.526;2023-05-02T14:58:30;98445.97;;;20.53;50.73
56414;BME280;42318;48.452;19.526;2023-05-02T15:06:00;98454.13;;;20.53;50.58
56414;BME280;42318;48.452;19.526;2023-05-02T15:13:31;98455.47;;;20.51;50.86
56414;BME280;42318;48.452;19.526;2023-05-02T15:21:02;98460.91;;;20.51;50.50
56414;BME280;42318;48.452;19.526;2023-05-02T15:28:33;98445.63;;;20.45;50.86
56414;BME280;42318;48.452;19.526;2023-05-02T15:36:04;98445.94;;;20.48;50.78
56414;BME280;42318;48.452;19.526;2023-05-02T15:43:35;98439.94;;;20.46;50.54
56414;BME280;42318;48.452;19.526;2023-05-02T15:51:07;98448.91;;;20.47;50.87
56414;BME280;42318;48.452;19.526;2023-05-02T15:58:40;98445.38;;;20.46;50.56
56414;BME280;42318;48.452;19.526;2023-05-02T16:06:11;98450.50;;;20.43;50.85
56414;BME280;42318;48.452;19.526;2023-05-02T16:13:41;98435.81;;;20.44;50.74
56414;BME280;42318;48.452;19.526;2023-05-02T16:21:12;98444.00;;;20.44;50.82
56414;BME280;42318;48.452;19.526;2023-05-02T16:28:44;98435.53;;;20.40;50.84
56414;BME280;42318;48.452;19.526;2023-05-02T16:36:14;98428.19;;;20.41;50.95
56414;BME280;42318;48.452;19.526;2023-05-02T16:43:45;98431.88;;;20.34;50.43
56414;BME280;42318;48.452;19.526;2023-05-02T16:51:16;98433.84;;;20.39;50.68
56414;BME280;42318;48.452;19.526;2023-05-02T16:58:47;98437.66;;;20.38;50.82
56414;BME280;42318;48.452;19.526;2023-05-02T17:06:18;98435.75;;;20.38;51.05
56414;BME280;42318;48.452;19.526;2023-05-02T17:13:51;98422.06;;;20.33;50.79
56414;BME280;42318;48.452;19.526;2023-05-02T17:21:22;98441.69;;;20.35;50.97
56414;BME280;42318;48.452;19.526;2023-05-02T17:28:53;98444.09;;;20.32;51.01
56414;BME280;42318;48.452;19.526;2023-05-02T17:36:23;98438.91;;;20.30;51.16
56414;BME280;42318;48.452;19.526;2023-05-02T17:43:54;98459.09;;;20.34;51.51
56414;BME280;42318;48.452;19.526;2023-05-02T17:51:26;98461.00;;;20.34;51.64
56414;BME280;42318;48.452;19.526;2023-05-02T17:58:57;98468.59;;;20.32;51.73
56414;BME280;42318;48.452;19.526;2023-05-02T18:06:29;98475.69;;;20.33;51.60
56414;BME280;42318;48.452;19.526;2023-05-02T18:14:01;98475.69;;;20.33;52.03
56414;BME280;42318;48.452;19.526;2023-05-02T18:21:35;98473.50;;;20.35;51.88
56414;BME280;42318;48.452;19.526;2023-05-02T18:29:07;98482.00;;;20.38;52.24
56414;BME280;42318;48.452;19.526;2023-05-02T18:36:38;98482.59;;;20.41;52.11
56414;BME280;42318;48.452;19.526;2023-05-02T18:44:09;98492.41;;;20.42;52.31
56414;BME280;42318;48.452;19.526;2023-05-02T18:51:41;98497.59;;;20.43;52.14
56414;BME280;42318;48.452;19.526;2023-05-02T18:59:11;98507.66;;;20.43;52.14
56414;BME280;42318;48.452;19.526;2023-05-02T19:06:42;98510.13;;;20.44;51.87
56414;BME280;42318;48.452;19.526;2023-05-02T19:14:13;98517.47;;;20.44;51.89
56414;BME280;42318;48.452;19.526;2023-05-02T19:21:44;98516.38;;;20.45;51.84
56414;BME280;42318;48.452;19.526;2023-05-02T19:29:16;98522.13;;;20.48;51.73
56414;BME280;42318;48.452;19.526;2023-05-02T19:36:47;98522.19;;;20.53;51.53
56414;BME280;42318;48.452;19.526;2023-05-02T19:44:17;98513.72;;;20.50;51.67
56414;BME280;42318;48.452;19.526;2023-05-02T19:51:48;98531.16;;;20.54;51.58
56414;BME280;42318;48.452;19.526;2023-05-02T19:59:19;98537.19;;;20.56;51.45
56414;BME280;42318;48.452;19.526;2023-05-02T20:06:50;98553.81;;;20.59;51.45
56414;BME280;42318;48.452;19.526;2023-05-02T20:14:21;98531.25;;;20.64;51.02
56414;BME280;42318;48.452;19.526;2023-05-02T20:21:55;98548.72;;;20.68;51.06
56414;BME280;42318;48.452;19.526;2023-05-02T20:29:26;98563.50;;;20.77;51.18
56414;BME280;42318;48.452;19.526;2023-05-02T20:36:57;98555.13;;;20.84;50.98
56414;BME280;42318;48.452;19.526;2023-05-02T20:44:28;98583.19;;;20.84;50.73
56414;BME280;42318;48.452;19.526;2023-05-02T20:52:03;98582.03;;;20.80;51.10
56414;BME280;42318;48.452;19.526;2023-05-02T20:59:35;98594.53;;;20.76;51.03
56414;BME280;42318;48.452;19.526;2023-05-02T21:07:06;98632.66;;;20.76;51.05
56414;BME280;42318;48.452;19.526;2023-05-02T21:14:37;98625.00;;;20.73;51.11
56414;BME280;42318;48.452;19.526;2023-05-02T21:22:07;98623.34;;;20.72;50.94
56414;BME280;42318;48.452;19.526;2023-05-02T21:29:38;98620.59;;;20.67;51.22
56414;BME280;42318;48.452;19.526;2023-05-02T21:37:09;98620.59;;;20.67;51.11
56414;BME280;42318;48.452;19.526;2023-05-02T21:44:40;98633.63;;;20.65;51.45
56414;BME280;42318;48.452;19.526;2023-05-02T21:52:11;98648.88;;;20.66;51.21
56414;BME280;42318;48.452;19.526;2023-05-02T21:59:41;98656.81;;;20.67;51.25
56414;BME280;42318;48.452;19.526;2023-05-02T22:07:12;98663.31;;;20.66;51.05
56414;BME280;42318;48.452;19.526;2023-05-02T22:14:43;98655.41;;;20.65;51.08
56414;BME280;42318;48.452;19.526;2023-05-02T22:22:14;98641.22;;;20.63;51.38
56414;BME280;42318;48.452;19.526;2023-05-02T22:29:45;98639.34;;;20.63;51.57
56414;BME280;42318;48.452;19.526;2023-05-02T22:37:16;98641.22;;;20.63;51.70
56414;BME280;42318;48.452;19.526;2023-05-02T22:44:50;98641.22;;;20.63;51.41
56414;BME280;42318;48.452;19.526;2023-05-02T22:52:21;98632.00;;;20.64;51.39
56414;BME280;42318;48.452;19.526;2023-05-02T22:59:51;98614.38;;;20.72;51.02
56414;BME280;42318;48.452;19.526;2023-05-02T23:07:22;98606.25;;;20.77;51.41
56414;BME280;42318;48.452;19.526;2023-05-02T23:14:53;98609.28;;;20.80;51.18
56414;BME280;42318;48.452;19.526;2023-05-02T23:22:24;98611.50;;;20.83;51.09
56414;BME280;42318;48.452;19.526;2023-05-02T23:29:54;98612.63;;;20.87;51.03
56414;BME280;42318;48.452;19.526;2023-05-02T23:37:25;98612.41;;;20.94;51.00
56414;BME280;42318;48.452;19.526;2023-05-02T23:44:57;98619.81;;;20.98;50.61
56414;BME280;42318;48.452;19.526;2023-05-02T23:52:28;98606.44;;;20.97;51.07
56414;BME280;42318;48.452;19.526;2023-05-02T23:59:59;98596.91;;;20.94;51.03
